GRZ548 Details

Departure: Juneau International Airport (PAJN)
Arrival: Petersburg James A Johnson Airport (PAPG) at N/A
Route: GLAZZ1 ODECO
Notes:


Current Weather Information
PAJN 230653Z 09008KT 10SM OVC060 06/04 A3034 RMK AO2 SLP273 T00560044
PAPG 230703Z AUTO 00000KT 10SM FEW002 SCT037 05/05 A3039 RMK AO2